METAR & TAF Report
Available data for CYAM from the past 6 hours
SAULT STE MARIE, ON
Metar
CYAM 262300Z 23009G15KT 15SM FEW025 BKN083 BKN200 M01/M04 A2970 RMK SC2AC4CC1 SLP070

23:00 UTC

Wind: 230° 9kt

Visibility: 15 SM

Sky: FEW 2500 ft

Temp: -1 deg C / 30.2 deg F

Dewpoint: -4 deg C / 24.8 deg F

Pressure: 29.7 inHg

TAF
TAF CYAM 261939Z 2620/2708 21012G22KT 3/4SM -SN VV008 TEMPO 2620/2702 6SM -SN OVC025 FM270200 27012KT 3SM -SN BKN020 TEMPO 2702/2708 6SM -SN BKN025 PROB30 2702/2708 11/2SM -SN RMK NXT FCST BY 270200Z
NOTAM

Click here for NOTAMs.